Canaan, New Hampshire
Current Conditions -  °F | °C
As of 8:53 AM on Wednesday 26 Nov 2014 (Local Time) from KLEB Reporting Station
Broken Clouds Broken Clouds  
Wind Chill: 32°   Ceiling: 11000
Heat Index: 37°   Visibility: 10mi
Dew Point: 27°   Wind: 6mph
Humidity: 67%   Direction: 40°NE
Pressure: 30.2"   Gusts: NA
Location:  43.65°N, 72.01°W
Report Text: KLEB 261353Z 04005KT 10SM FEW035 BKN110 03/M03 A3020 RMK AO2 SLP234 T00281028
Loading
Personal Weather Stations






























Interactive Weather Map New forecast layout! Learn more

10-Day Weather Forecast

Advertisements
Track Severe Weather on mobile